sensor_id;sensor_type;location;lat;lon;timestamp;pressure;altitude;pressure_sealevel;temperature;humidity
74065;BME280;62421;51.412;5.432;2023-05-28T00:01:03;101883.00;;;12.73;79.62
74065;BME280;62421;51.412;5.432;2023-05-28T00:03:29;101889.66;;;12.67;80.57
74065;BME280;62421;51.412;5.432;2023-05-28T00:05:57;101879.84;;;12.66;80.18
74065;BME280;62421;51.412;5.432;2023-05-28T00:08:22;101885.50;;;12.61;80.58
74065;BME280;62421;51.412;5.432;2023-05-28T00:10:48;101883.97;;;12.57;80.89
74065;BME280;62421;51.412;5.432;2023-05-28T00:13:13;101884.34;;;12.51;81.44
74065;BME280;62421;51.412;5.432;2023-05-28T00:15:39;101881.84;;;12.48;81.18
74065;BME280;62421;51.412;5.432;2023-05-28T00:18:05;101881.38;;;12.41;81.70
74065;BME280;62421;51.412;5.432;2023-05-28T00:20:30;101877.00;;;12.39;82.03
74065;BME280;62421;51.412;5.432;2023-05-28T00:22:55;101870.28;;;12.32;82.70
74065;BME280;62421;51.412;5.432;2023-05-28T00:25:21;101876.81;;;12.27;82.47
74065;BME280;62421;51.412;5.432;2023-05-28T00:27:46;101875.25;;;12.23;82.29
74065;BME280;62421;51.412;5.432;2023-05-28T00:30:12;101864.69;;;12.20;82.73
74065;BME280;62421;51.412;5.432;2023-05-28T00:32:37;101868.72;;;12.13;83.77
74065;BME280;62421;51.412;5.432;2023-05-28T00:35:03;101871.84;;;12.05;83.93
74065;BME280;62421;51.412;5.432;2023-05-28T00:37:28;101861.16;;;12.04;83.99
74065;BME280;62421;51.412;5.432;2023-05-28T00:39:53;101863.19;;;12.00;83.51
74065;BME280;62421;51.412;5.432;2023-05-28T00:42:19;101862.50;;;11.97;84.18
74065;BME280;62421;51.412;5.432;2023-05-28T00:44:44;101861.72;;;11.95;84.45
74065;BME280;62421;51.412;5.432;2023-05-28T00:47:10;101864.63;;;11.92;84.62
74065;BME280;62421;51.412;5.432;2023-05-28T00:49:36;101860.25;;;11.89;84.78
74065;BME280;62421;51.412;5.432;2023-05-28T00:52:03;101859.56;;;11.85;84.77
74065;BME280;62421;51.412;5.432;2023-05-28T00:54:32;101858.09;;;11.80;85.43
74065;BME280;62421;51.412;5.432;2023-05-28T00:56:58;101858.38;;;11.75;85.96
74065;BME280;62421;51.412;5.432;2023-05-28T00:59:25;101863.91;;;11.72;85.94
74065;BME280;62421;51.412;5.432;2023-05-28T01:01:51;101867.78;;;11.68;86.37
74065;BME280;62421;51.412;5.432;2023-05-28T01:04:16;101860.13;;;11.60;87.30
74065;BME280;62421;51.412;5.432;2023-05-28T01:06:43;101863.69;;;11.61;87.10
74065;BME280;62421;51.412;5.432;2023-05-28T01:09:09;101869.34;;;11.56;87.57
74065;BME280;62421;51.412;5.432;2023-05-28T01:11:36;101867.69;;;11.54;87.83
74065;BME280;62421;51.412;5.432;2023-05-28T01:14:05;101871.44;;;11.51;87.57
74065;BME280;62421;51.412;5.432;2023-05-28T01:16:31;101861.44;;;11.53;87.50
74065;BME280;62421;51.412;5.432;2023-05-28T01:18:57;101864.16;;;11.53;87.43
74065;BME280;62421;51.412;5.432;2023-05-28T01:21:25;101865.00;;;11.54;87.68
74065;BME280;62421;51.412;5.432;2023-05-28T01:23:53;101864.16;;;11.53;87.81
74065;BME280;62421;51.412;5.432;2023-05-28T01:26:22;101870.53;;;11.51;88.21
74065;BME280;62421;51.412;5.432;2023-05-28T01:28:48;101867.06;;;11.48;88.12
74065;BME280;62421;51.412;5.432;2023-05-28T01:31:15;101867.00;;;11.50;87.75
74065;BME280;62421;51.412;5.432;2023-05-28T01:33:41;101863.72;;;11.45;88.68
74065;BME280;62421;51.412;5.432;2023-05-28T01:36:32;101859.47;;;11.41;88.83
74065;BME280;62421;51.412;5.432;2023-05-28T01:38:56;101859.63;;;11.38;89.01
74065;BME280;62421;51.412;5.432;2023-05-28T01:41:25;101859.81;;;11.35;89.45
74065;BME280;62421;51.412;5.432;2023-05-28T01:43:51;101866.94;;;11.36;89.20
74065;BME280;62421;51.412;5.432;2023-05-28T01:46:19;101862.41;;;11.36;89.61
74065;BME280;62421;51.412;5.432;2023-05-28T01:48:45;101860.00;;;11.32;89.05
74065;BME280;62421;51.412;5.432;2023-05-28T01:51:15;101863.81;;;11.27;89.69
74065;BME280;62421;51.412;5.432;2023-05-28T01:53:41;101868.56;;;11.22;89.88
74065;BME280;62421;51.412;5.432;2023-05-28T01:56:06;101869.88;;;11.15;91.04
74065;BME280;62421;51.412;5.432;2023-05-28T01:58:32;101861.03;;;11.13;90.74
74065;BME280;62421;51.412;5.432;2023-05-28T02:01:18;101869.28;;;11.10;89.76
74065;BME280;62421;51.412;5.432;2023-05-28T02:03:46;101867.59;;;11.07;90.68
74065;BME280;62421;51.412;5.432;2023-05-28T02:06:11;101860.50;;;11.06;91.11
74065;BME280;62421;51.412;5.432;2023-05-28T02:08:36;101862.34;;;11.06;91.15
74065;BME280;62421;51.412;5.432;2023-05-28T02:11:02;101864.31;;;11.02;91.32
74065;BME280;62421;51.412;5.432;2023-05-28T02:13:27;101863.28;;;11.05;92.19
74065;BME280;62421;51.412;5.432;2023-05-28T02:15:56;101858.59;;;11.09;91.24
74065;BME280;62421;51.412;5.432;2023-05-28T02:18:22;101866.66;;;11.09;91.36
74065;BME280;62421;51.412;5.432;2023-05-28T02:20:47;101856.06;;;11.05;91.58
74065;BME280;62421;51.412;5.432;2023-05-28T02:23:12;101852.72;;;11.02;92.28
74065;BME280;62421;51.412;5.432;2023-05-28T02:25:38;101844.81;;;10.99;91.05
74065;BME280;62421;51.412;5.432;2023-05-28T02:28:03;101852.06;;;10.97;91.59
74065;BME280;62421;51.412;5.432;2023-05-28T02:30:29;101846.97;;;10.92;92.20
74065;BME280;62421;51.412;5.432;2023-05-28T02:32:54;101848.97;;;10.89;92.77
74065;BME280;62421;51.412;5.432;2023-05-28T02:35:20;101851.75;;;10.87;92.66
74065;BME280;62421;51.412;5.432;2023-05-28T02:37:46;101845.75;;;10.82;92.84
74065;BME280;62421;51.412;5.432;2023-05-28T02:40:12;101847.75;;;10.78;92.59
74065;BME280;62421;51.412;5.432;2023-05-28T02:42:38;101848.94;;;10.73;93.47
74065;BME280;62421;51.412;5.432;2023-05-28T02:45:05;101848.16;;;10.71;93.56
74065;BME280;62421;51.412;5.432;2023-05-28T02:47:31;101842.88;;;10.69;92.98
74065;BME280;62421;51.412;5.432;2023-05-28T02:49:56;101844.84;;;10.65;93.37
74065;BME280;62421;51.412;5.432;2023-05-28T02:52:22;101838.88;;;10.60;94.26
74065;BME280;62421;51.412;5.432;2023-05-28T02:54:47;101840.78;;;10.58;94.09
74065;BME280;62421;51.412;5.432;2023-05-28T02:57:13;101844.59;;;10.54;94.80
74065;BME280;62421;51.412;5.432;2023-05-28T02:59:39;101851.94;;;10.51;95.19
74065;BME280;62421;51.412;5.432;2023-05-28T03:02:04;101846.63;;;10.49;95.13
74065;BME280;62421;51.412;5.432;2023-05-28T03:04:29;101848.63;;;10.45;95.39
74065;BME280;62421;51.412;5.432;2023-05-28T03:06:55;101852.25;;;10.44;94.75
74065;BME280;62421;51.412;5.432;2023-05-28T03:09:20;101855.00;;;10.43;94.60
74065;BME280;62421;51.412;5.432;2023-05-28T03:11:45;101847.84;;;10.43;95.52
74065;BME280;62421;51.412;5.432;2023-05-28T03:14:11;101851.53;;;10.41;95.67
74065;BME280;62421;51.412;5.432;2023-05-28T03:16:36;101850.75;;;10.39;95.98
74065;BME280;62421;51.412;5.432;2023-05-28T03:19:02;101858.91;;;10.37;95.74
74065;BME280;62421;51.412;5.432;2023-05-28T03:21:28;101853.78;;;10.33;96.03
74065;BME280;62421;51.412;5.432;2023-05-28T03:23:53;101851.19;;;10.31;95.98
74065;BME280;62421;51.412;5.432;2023-05-28T03:26:18;101851.38;;;10.27;96.40
74065;BME280;62421;51.412;5.432;2023-05-28T03:28:44;101850.59;;;10.24;96.22
74065;BME280;62421;51.412;5.432;2023-05-28T03:31:11;101854.31;;;10.22;96.79
74065;BME280;62421;51.412;5.432;2023-05-28T03:33:37;101855.19;;;10.22;96.60
74065;BME280;62421;51.412;5.432;2023-05-28T03:36:03;101866.00;;;10.21;96.47
74065;BME280;62421;51.412;5.432;2023-05-28T03:38:28;101860.69;;;10.19;96.29
74065;BME280;62421;51.412;5.432;2023-05-28T03:40:54;101856.28;;;10.18;97.05
74065;BME280;62421;51.412;5.432;2023-05-28T03:43:19;101859.91;;;10.17;96.30
74065;BME280;62421;51.412;5.432;2023-05-28T03:45:44;101852.63;;;10.19;96.36
74065;BME280;62421;51.412;5.432;2023-05-28T03:48:10;101863.06;;;10.25;96.21
74065;BME280;62421;51.412;5.432;2023-05-28T03:50:36;101852.09;;;10.30;95.97
74065;BME280;62421;51.412;5.432;2023-05-28T03:53:01;101865.38;;;10.33;95.56
74065;BME280;62421;51.412;5.432;2023-05-28T03:55:26;101868.78;;;10.37;95.68
74065;BME280;62421;51.412;5.432;2023-05-28T03:57:52;101875.63;;;10.42;94.57
74065;BME280;62421;51.412;5.432;2023-05-28T04:00:17;101868.75;;;10.54;94.27
74065;BME280;62421;51.412;5.432;2023-05-28T04:02:43;101874.56;;;10.62;93.78
74065;BME280;62421;51.412;5.432;2023-05-28T04:05:08;101866.16;;;10.69;93.33
74065;BME280;62421;51.412;5.432;2023-05-28T04:07:34;101867.59;;;10.76;93.55
74065;BME280;62421;51.412;5.432;2023-05-28T04:10:00;101868.19;;;10.81;92.36
74065;BME280;62421;51.412;5.432;2023-05-28T04:12:25;101875.84;;;10.89;92.03
74065;BME280;62421;51.412;5.432;2023-05-28T04:14:50;101876.25;;;10.97;92.36
74065;BME280;62421;51.412;5.432;2023-05-28T04:17:16;101875.06;;;11.02;91.31
74065;BME280;62421;51.412;5.432;2023-05-28T04:19:42;101867.59;;;11.07;91.10
74065;BME280;62421;51.412;5.432;2023-05-28T04:22:07;101877.94;;;11.15;90.63
74065;BME280;62421;51.412;5.432;2023-05-28T04:24:33;101881.16;;;11.22;90.53
74065;BME280;62421;51.412;5.432;2023-05-28T04:26:58;101872.75;;;11.28;90.08
74065;BME280;62421;51.412;5.432;2023-05-28T04:29:24;101876.91;;;11.34;90.25
74065;BME280;62421;51.412;5.432;2023-05-28T04:31:55;101878.56;;;11.36;90.27
74065;BME280;62421;51.412;5.432;2023-05-28T04:34:20;101879.16;;;11.41;89.42
74065;BME280;62421;51.412;5.432;2023-05-28T04:36:46;101890.41;;;11.48;89.31
74065;BME280;62421;51.412;5.432;2023-05-28T04:39:13;101882.88;;;11.55;88.86
74065;BME280;62421;51.412;5.432;2023-05-28T04:41:39;101881.66;;;11.60;88.56
74065;BME280;62421;51.412;5.432;2023-05-28T04:44:05;101879.16;;;12.03;88.86
74065;BME280;62421;51.412;5.432;2023-05-28T04:46:30;101883.41;;;12.95;83.66
74065;BME280;62421;51.412;5.432;2023-05-28T04:48:56;101880.09;;;13.87;79.19
74065;BME280;62421;51.412;5.432;2023-05-28T04:51:21;101879.44;;;14.62;74.69
74065;BME280;62421;51.412;5.432;2023-05-28T04:53:47;101882.16;;;15.25;72.84
74065;BME280;62421;51.412;5.432;2023-05-28T04:56:13;101895.94;;;15.70;69.79
74065;BME280;62421;51.412;5.432;2023-05-28T04:58:39;101890.69;;;15.92;69.02
74065;BME280;62421;51.412;5.432;2023-05-28T05:01:05;101889.06;;;16.25;67.35
74065;BME280;62421;51.412;5.432;2023-05-28T05:03:33;101894.69;;;16.69;67.08
74065;BME280;62421;51.412;5.432;2023-05-28T05:05:58;101883.34;;;17.31;64.51
74065;BME280;62421;51.412;5.432;2023-05-28T05:08:23;101883.66;;;17.60;61.43
74065;BME280;62421;51.412;5.432;2023-05-28T05:10:49;101879.75;;;17.74;61.12
74065;BME280;62421;51.412;5.432;2023-05-28T05:13:15;101883.75;;;17.70;60.34
74065;BME280;62421;51.412;5.432;2023-05-28T05:15:40;101877.50;;;17.47;60.88
74065;BME280;62421;51.412;5.432;2023-05-28T05:18:05;101874.25;;;17.65;61.90
74065;BME280;62421;51.412;5.432;2023-05-28T05:20:31;101871.84;;;17.83;59.22
74065;BME280;62421;51.412;5.432;2023-05-28T05:22:56;101871.88;;;18.04;59.28
74065;BME280;62421;51.412;5.432;2023-05-28T05:25:22;101881.31;;;18.20;58.42
74065;BME280;62421;51.412;5.432;2023-05-28T05:27:49;101882.09;;;18.32;58.99
74065;BME280;62421;51.412;5.432;2023-05-28T05:30:15;101884.81;;;18.32;57.60
74065;BME280;62421;51.412;5.432;2023-05-28T05:32:41;101894.06;;;17.76;58.41
74065;BME280;62421;51.412;5.432;2023-05-28T05:35:07;101893.34;;;16.74;61.83
74065;BME280;62421;51.412;5.432;2023-05-28T05:37:32;101894.03;;;15.72;65.88
74065;BME280;62421;51.412;5.432;2023-05-28T05:39:57;101889.25;;;15.02;68.70
74065;BME280;62421;51.412;5.432;2023-05-28T05:42:23;101883.78;;;14.65;71.54
74065;BME280;62421;51.412;5.432;2023-05-28T05:44:48;101894.09;;;14.32;72.68
74065;BME280;62421;51.412;5.432;2023-05-28T05:47:13;101900.09;;;14.10;73.79
74065;BME280;62421;51.412;5.432;2023-05-28T05:49:39;101894.91;;;13.95;75.13
74065;BME280;62421;51.412;5.432;2023-05-28T05:52:05;101900.03;;;13.85;76.05
74065;BME280;62421;51.412;5.432;2023-05-28T05:54:30;101902.28;;;13.78;76.52
74065;BME280;62421;51.412;5.432;2023-05-28T05:56:56;101902.91;;;13.69;76.81
74065;BME280;62421;51.412;5.432;2023-05-28T05:59:21;101905.81;;;13.66;77.61
74065;BME280;62421;51.412;5.432;2023-05-28T06:01:46;101911.31;;;13.64;77.07
74065;BME280;62421;51.412;5.432;2023-05-28T06:04:12;101913.25;;;13.62;77.58
74065;BME280;62421;51.412;5.432;2023-05-28T06:06:37;101906.09;;;13.61;78.05
74065;BME280;62421;51.412;5.432;2023-05-28T06:09:04;101904.16;;;13.63;77.76
74065;BME280;62421;51.412;5.432;2023-05-28T06:11:30;101913.91;;;13.66;78.41
74065;BME280;62421;51.412;5.432;2023-05-28T06:13:55;101903.75;;;13.69;79.29
74065;BME280;62421;51.412;5.432;2023-05-28T06:16:21;101910.78;;;13.72;79.29
74065;BME280;62421;51.412;5.432;2023-05-28T06:18:47;101916.00;;;13.75;79.07
74065;BME280;62421;51.412;5.432;2023-05-28T06:21:12;101916.75;;;13.77;79.91
74065;BME280;62421;51.412;5.432;2023-05-28T06:23:38;101913.84;;;13.80;78.52
74065;BME280;62421;51.412;5.432;2023-05-28T06:26:03;101921.00;;;13.81;78.89
74065;BME280;62421;51.412;5.432;2023-05-28T06:28:30;101918.94;;;13.85;78.94
74065;BME280;62421;51.412;5.432;2023-05-28T06:30:55;101911.50;;;13.88;78.80
74065;BME280;62421;51.412;5.432;2023-05-28T06:33:21;101913.13;;;13.91;78.99
74065;BME280;62421;51.412;5.432;2023-05-28T06:35:46;101910.25;;;13.94;79.02
74065;BME280;62421;51.412;5.432;2023-05-28T06:38:12;101907.22;;;13.99;80.25
74065;BME280;62421;51.412;5.432;2023-05-28T06:40:37;101913.94;;;14.06;78.90
74065;BME280;62421;51.412;5.432;2023-05-28T06:43:02;101916.75;;;14.17;78.86
74065;BME280;62421;51.412;5.432;2023-05-28T06:45:28;101909.09;;;14.24;79.08
74065;BME280;62421;51.412;5.432;2023-05-28T06:47:54;101908.47;;;14.33;78.63
74065;BME280;62421;51.412;5.432;2023-05-28T06:50:19;101906.97;;;14.42;77.28
74065;BME280;62421;51.412;5.432;2023-05-28T06:52:44;101910.66;;;14.53;78.74
74065;BME280;62421;51.412;5.432;2023-05-28T06:55:10;101901.72;;;14.66;76.48
74065;BME280;62421;51.412;5.432;2023-05-28T06:57:36;101913.72;;;14.74;76.55
74065;BME280;62421;51.412;5.432;2023-05-28T07:00:06;101911.34;;;14.83;76.58
74065;BME280;62421;51.412;5.432;2023-05-28T07:02:43;101903.31;;;14.94;75.79
74065;BME280;62421;51.412;5.432;2023-05-28T07:05:09;101898.88;;;15.06;75.87
74065;BME280;62421;51.412;5.432;2023-05-28T07:07:35;101909.69;;;15.19;75.03
74065;BME280;62421;51.412;5.432;2023-05-28T07:10:01;101906.06;;;15.31;74.41
74065;BME280;62421;51.412;5.432;2023-05-28T07:12:26;101909.72;;;15.43;74.50
74065;BME280;62421;51.412;5.432;2023-05-28T07:14:52;101903.63;;;15.52;73.69
74065;BME280;62421;51.412;5.432;2023-05-28T07:17:17;101914.63;;;15.62;73.24
74065;BME280;62421;51.412;5.432;2023-05-28T07:19:42;101914.72;;;15.73;72.34
74065;BME280;62421;51.412;5.432;2023-05-28T07:22:08;101917.13;;;15.89;72.99
74065;BME280;62421;51.412;5.432;2023-05-28T07:24:33;101925.06;;;16.03;69.85
74065;BME280;62421;51.412;5.432;2023-05-28T07:26:58;101922.28;;;16.16;70.79
74065;BME280;62421;51.412;5.432;2023-05-28T07:29:26;101924.78;;;16.30;69.39
74065;BME280;62421;51.412;5.432;2023-05-28T07:31:52;101921.25;;;16.41;69.48
74065;BME280;62421;51.412;5.432;2023-05-28T07:34:17;101916.97;;;16.50;68.04
74065;BME280;62421;51.412;5.432;2023-05-28T07:36:43;101923.16;;;16.63;69.00
74065;BME280;62421;51.412;5.432;2023-05-28T07:39:08;101917.75;;;16.74;67.59
74065;BME280;62421;51.412;5.432;2023-05-28T07:41:35;101927.03;;;16.83;65.45
74065;BME280;62421;51.412;5.432;2023-05-28T07:44:01;101920.00;;;16.92;65.07
74065;BME280;62421;51.412;5.432;2023-05-28T07:46:26;101912.00;;;17.02;64.39
74065;BME280;62421;51.412;5.432;2023-05-28T07:48:52;101914.72;;;17.13;64.62
74065;BME280;62421;51.412;5.432;2023-05-28T07:51:17;101917.28;;;17.26;63.34
74065;BME280;62421;51.412;5.432;2023-05-28T07:53:43;101914.44;;;17.38;63.29
74065;BME280;62421;51.412;5.432;2023-05-28T07:56:08;101908.34;;;17.46;62.78
74065;BME280;62421;51.412;5.432;2023-05-28T07:58:35;101911.31;;;17.54;62.78
74065;BME280;62421;51.412;5.432;2023-05-28T08:01:01;101909.56;;;17.65;61.10
74065;BME280;62421;51.412;5.432;2023-05-28T08:03:26;101905.59;;;17.69;63.04
74065;BME280;62421;51.412;5.432;2023-05-28T08:05:53;101913.25;;;17.75;61.93
74065;BME280;62421;51.412;5.432;2023-05-28T08:08:19;101912.00;;;17.79;62.69
74065;BME280;62421;51.412;5.432;2023-05-28T08:10:44;101912.22;;;17.87;61.62
74065;BME280;62421;51.412;5.432;2023-05-28T08:13:10;101900.31;;;17.99;62.50
74065;BME280;62421;51.412;5.432;2023-05-28T08:15:36;101902.84;;;18.12;63.11
74065;BME280;62421;51.412;5.432;2023-05-28T08:18:02;101904.03;;;18.19;63.73
74065;BME280;62421;51.412;5.432;2023-05-28T08:20:28;101907.69;;;18.30;60.61
74065;BME280;62421;51.412;5.432;2023-05-28T08:22:54;101903.59;;;18.35;58.11
74065;BME280;62421;51.412;5.432;2023-05-28T08:25:20;101909.38;;;18.42;57.92
74065;BME280;62421;51.412;5.432;2023-05-28T08:27:45;101897.22;;;18.46;57.56
74065;BME280;62421;51.412;5.432;2023-05-28T08:30:11;101900.16;;;18.54;57.39
74065;BME280;62421;51.412;5.432;2023-05-28T08:32:37;101897.59;;;18.62;58.06
74065;BME280;62421;51.412;5.432;2023-05-28T08:35:02;101888.50;;;18.73;58.51
74065;BME280;62421;51.412;5.432;2023-05-28T08:37:28;101883.88;;;18.85;56.25
74065;BME280;62421;51.412;5.432;2023-05-28T08:39:54;101887.63;;;18.94;56.84
74065;BME280;62421;51.412;5.432;2023-05-28T08:42:19;101880.91;;;18.98;54.81
74065;BME280;62421;51.412;5.432;2023-05-28T08:44:45;101880.91;;;18.98;55.11
74065;BME280;62421;51.412;5.432;2023-05-28T08:47:12;101888.66;;;19.02;57.11
74065;BME280;62421;51.412;5.432;2023-05-28T08:49:41;101882.69;;;19.09;57.84
74065;BME280;62421;51.412;5.432;2023-05-28T08:52:12;101879.53;;;19.13;57.16
74065;BME280;62421;51.412;5.432;2023-05-28T08:54:38;101880.28;;;19.25;57.88
74065;BME280;62421;51.412;5.432;2023-05-28T08:57:04;101875.41;;;19.29;56.42
74065;BME280;62421;51.412;5.432;2023-05-28T08:59:30;101865.25;;;19.31;56.96
74065;BME280;62421;51.412;5.432;2023-05-28T09:01:56;101864.41;;;19.40;56.16
74065;BME280;62421;51.412;5.432;2023-05-28T09:04:22;101865.41;;;19.39;55.58
74065;BME280;62421;51.412;5.432;2023-05-28T09:06:48;101873.72;;;19.37;55.29
74065;BME280;62421;51.412;5.432;2023-05-28T09:09:14;101871.72;;;19.30;55.40
74065;BME280;62421;51.412;5.432;2023-05-28T09:11:40;101866.81;;;19.23;56.38
74065;BME280;62421;51.412;5.432;2023-05-28T09:14:13;101861.34;;;19.14;56.66
74065;BME280;62421;51.412;5.432;2023-05-28T09:16:42;101866.34;;;19.09;57.50
74065;BME280;62421;51.412;5.432;2023-05-28T09:19:08;101850.59;;;19.12;56.38
74065;BME280;62421;51.412;5.432;2023-05-28T09:21:34;101859.50;;;19.24;56.24
74065;BME280;62421;51.412;5.432;2023-05-28T09:24:00;101862.81;;;19.28;55.40
74065;BME280;62421;51.412;5.432;2023-05-28T09:26:33;101862.94;;;19.36;56.86
74065;BME280;62421;51.412;5.432;2023-05-28T09:28:59;101857.25;;;19.49;55.46
74065;BME280;62421;51.412;5.432;2023-05-28T09:31:29;101865.00;;;19.63;55.81
74065;BME280;62421;51.412;5.432;2023-05-28T09:33:58;101864.06;;;19.83;54.88
74065;BME280;62421;51.412;5.432;2023-05-28T09:36:25;101860.78;;;19.90;53.00
74065;BME280;62421;51.412;5.432;2023-05-28T09:38:50;101874.97;;;20.03;55.96
74065;BME280;62421;51.412;5.432;2023-05-28T09:41:19;101868.50;;;20.14;53.63
74065;BME280;62421;51.412;5.432;2023-05-28T09:43:45;101864.16;;;20.31;54.14
74065;BME280;62421;51.412;5.432;2023-05-28T09:46:11;101866.84;;;20.40;53.48
74065;BME280;62421;51.412;5.432;2023-05-28T09:48:36;101856.19;;;20.57;52.70
74065;BME280;62421;51.412;5.432;2023-05-28T09:51:03;101856.19;;;20.57;51.57
74065;BME280;62421;51.412;5.432;2023-05-28T09:53:30;101864.09;;;20.70;52.81
74065;BME280;62421;51.412;5.432;2023-05-28T09:56:00;101853.22;;;20.88;51.75
74065;BME280;62421;51.412;5.432;2023-05-28T09:58:32;101858.38;;;20.91;50.94
74065;BME280;62421;51.412;5.432;2023-05-28T10:01:04;101855.97;;;20.88;49.97
74065;BME280;62421;51.412;5.432;2023-05-28T10:03:39;101859.38;;;20.99;50.52
74065;BME280;62421;51.412;5.432;2023-05-28T10:06:11;101858.91;;;21.04;50.91
74065;BME280;62421;51.412;5.432;2023-05-28T10:08:39;101846.59;;;21.18;49.06
74065;BME280;62421;51.412;5.432;2023-05-28T10:11:10;101850.28;;;21.26;48.28
74065;BME280;62421;51.412;5.432;2023-05-28T10:13:39;101853.69;;;21.38;48.45
74065;BME280;62421;51.412;5.432;2023-05-28T10:16:05;101847.78;;;21.43;47.19
74065;BME280;62421;51.412;5.432;2023-05-28T10:18:30;101857.53;;;21.45;48.04
74065;BME280;62421;51.412;5.432;2023-05-28T10:20:56;101848.72;;;21.52;46.53
74065;BME280;62421;51.412;5.432;2023-05-28T10:23:24;101853.25;;;21.43;46.23
74065;BME280;62421;51.412;5.432;2023-05-28T10:25:50;101857.25;;;21.21;46.35
74065;BME280;62421;51.412;5.432;2023-05-28T10:28:16;101853.16;;;21.25;45.82
74065;BME280;62421;51.412;5.432;2023-05-28T10:30:42;101845.03;;;21.43;46.38
74065;BME280;62421;51.412;5.432;2023-05-28T10:35:34;101849.03;;;21.84;45.01
74065;BME280;62421;51.412;5.432;2023-05-28T10:38:07;101848.47;;;21.81;43.54
74065;BME280;62421;51.412;5.432;2023-05-28T10:40:34;101852.00;;;21.73;43.34
74065;BME280;62421;51.412;5.432;2023-05-28T10:43:00;101850.59;;;21.87;43.28
74065;BME280;62421;51.412;5.432;2023-05-28T10:45:36;101853.22;;;22.15;45.49
74065;BME280;62421;51.412;5.432;2023-05-28T10:48:02;101850.50;;;22.41;44.06
74065;BME280;62421;51.412;5.432;2023-05-28T10:50:27;101851.69;;;22.64;43.93
74065;BME280;62421;51.412;5.432;2023-05-28T10:53:06;101853.72;;;22.62;41.41
74065;BME280;62421;51.412;5.432;2023-05-28T10:55:52;101867.09;;;22.65;42.19
74065;BME280;62421;51.412;5.432;2023-05-28T11:00:59;101862.81;;;22.63;42.87
74065;BME280;62421;51.412;5.432;2023-05-28T11:03:52;101858.75;;;22.75;43.84
74065;BME280;62421;51.412;5.432;2023-05-28T11:06:18;101854.81;;;22.78;42.17
74065;BME280;62421;51.412;5.432;2023-05-28T11:08:46;101857.75;;;22.76;42.97
74065;BME280;62421;51.412;5.432;2023-05-28T11:11:12;101845.91;;;22.76;40.95
74065;BME280;62421;51.412;5.432;2023-05-28T11:13:41;101850.25;;;22.86;41.15
74065;BME280;62421;51.412;5.432;2023-05-28T11:16:11;101848.56;;;22.85;41.16
74065;BME280;62421;51.412;5.432;2023-05-28T11:18:37;101850.28;;;22.95;42.44
74065;BME280;62421;51.412;5.432;2023-05-28T11:21:08;101844.56;;;23.14;41.40
74065;BME280;62421;51.412;5.432;2023-05-28T11:23:35;101853.44;;;23.08;40.14
74065;BME280;62421;51.412;5.432;2023-05-28T11:26:02;101856.41;;;23.15;43.25
74065;BME280;62421;51.412;5.432;2023-05-28T11:28:28;101858.81;;;23.18;40.75
74065;BME280;62421;51.412;5.432;2023-05-28T11:30:56;101846.63;;;23.12;42.21
74065;BME280;62421;51.412;5.432;2023-05-28T11:33:21;101855.69;;;23.04;40.60
74065;BME280;62421;51.412;5.432;2023-05-28T11:35:56;101840.13;;;23.13;39.87
74065;BME280;62421;51.412;5.432;2023-05-28T11:38:22;101848.31;;;23.05;40.29
74065;BME280;62421;51.412;5.432;2023-05-28T11:40:48;101848.50;;;23.12;39.15
74065;BME280;62421;51.412;5.432;2023-05-28T11:43:13;101842.25;;;23.36;39.17
74065;BME280;62421;51.412;5.432;2023-05-28T11:45:39;101835.94;;;23.43;38.40
74065;BME280;62421;51.412;5.432;2023-05-28T11:48:11;101835.78;;;23.45;40.57
74065;BME280;62421;51.412;5.432;2023-05-28T11:50:36;101831.47;;;23.34;38.11
74065;BME280;62421;51.412;5.432;2023-05-28T11:53:01;101819.41;;;23.10;38.32
74065;BME280;62421;51.412;5.432;2023-05-28T11:55:27;101840.44;;;23.02;40.32
74065;BME280;62421;51.412;5.432;2023-05-28T11:57:53;101839.75;;;23.08;40.57
74065;BME280;62421;51.412;5.432;2023-05-28T12:00:30;101844.25;;;23.17;40.69
74065;BME280;62421;51.412;5.432;2023-05-28T12:02:57;101831.47;;;22.92;40.24
74065;BME280;62421;51.412;5.432;2023-05-28T12:05:23;101837.41;;;22.79;40.90
74065;BME280;62421;51.412;5.432;2023-05-28T12:07:50;101836.34;;;22.80;42.52
74065;BME280;62421;51.412;5.432;2023-05-28T12:10:26;101835.91;;;22.93;41.88
74065;BME280;62421;51.412;5.432;2023-05-28T12:12:55;101844.19;;;23.01;42.07
74065;BME280;62421;51.412;5.432;2023-05-28T12:15:27;101837.13;;;22.98;43.12
74065;BME280;62421;51.412;5.432;2023-05-28T12:17:57;101837.13;;;22.98;40.41
74065;BME280;62421;51.412;5.432;2023-05-28T12:23:04;101831.44;;;22.83;41.40
74065;BME280;62421;51.412;5.432;2023-05-28T12:28:08;101845.31;;;22.90;42.55
74065;BME280;62421;51.412;5.432;2023-05-28T12:30:33;101832.47;;;22.90;41.29
74065;BME280;62421;51.412;5.432;2023-05-28T12:32:59;101836.94;;;22.92;42.39
74065;BME280;62421;51.412;5.432;2023-05-28T12:35:24;101824.91;;;22.76;40.88
74065;BME280;62421;51.412;5.432;2023-05-28T12:37:50;101836.78;;;22.59;39.96
74065;BME280;62421;51.412;5.432;2023-05-28T12:40:15;101846.41;;;22.63;40.62
74065;BME280;62421;51.412;5.432;2023-05-28T12:42:41;101842.97;;;22.69;40.33
74065;BME280;62421;51.412;5.432;2023-05-28T12:45:07;101835.66;;;22.78;40.98
74065;BME280;62421;51.412;5.432;2023-05-28T12:47:33;101841.06;;;22.96;39.89
74065;BME280;62421;51.412;5.432;2023-05-28T12:49:58;101826.41;;;23.05;40.16
74065;BME280;62421;51.412;5.432;2023-05-28T12:52:23;101825.78;;;23.19;40.09
74065;BME280;62421;51.412;5.432;2023-05-28T12:54:49;101825.81;;;23.27;37.52
74065;BME280;62421;51.412;5.432;2023-05-28T12:57:14;101828.88;;;23.33;36.05